sensor_id;sensor_type;location;lat;lon;timestamp;temperature;humidity
65203;HTU21D;51788;45.124;38.966;2023-03-16T00:02:19;7.91;75.52
65203;HTU21D;51788;45.124;38.966;2023-03-16T00:04:44;7.89;75.57
65203;HTU21D;51788;45.124;38.966;2023-03-16T00:07:13;7.87;75.75
65203;HTU21D;51788;45.124;38.966;2023-03-16T00:09:40;7.86;75.63
65203;HTU21D;51788;45.124;38.966;2023-03-16T00:12:14;7.85;75.99
65203;HTU21D;51788;45.124;38.966;2023-03-16T00:14:45;7.83;76.24
65203;HTU21D;51788;45.124;38.966;2023-03-16T00:17:13;7.79;76.07
65203;HTU21D;51788;45.124;38.966;2023-03-16T00:19:51;7.79;75.94
65203;HTU21D;51788;45.124;38.966;2023-03-16T00:22:26;7.82;75.85
65203;HTU21D;51788;45.124;38.966;2023-03-16T00:24:53;7.82;75.99
65203;HTU21D;51788;45.124;38.966;2023-03-16T00:27:20;7.78;76.12
65203;HTU21D;51788;45.124;38.966;2023-03-16T00:29:48;7.76;76.15
65203;HTU21D;51788;45.124;38.966;2023-03-16T00:32:21;7.74;76.26
65203;HTU21D;51788;45.124;38.966;2023-03-16T00:34:47;7.71;76.24
65203;HTU21D;51788;45.124;38.966;2023-03-16T00:37:16;7.62;76.45
65203;HTU21D;51788;45.124;38.966;2023-03-16T00:39:44;7.60;76.82
65203;HTU21D;51788;45.124;38.966;2023-03-16T00:42:13;7.56;76.70
65203;HTU21D;51788;45.124;38.966;2023-03-16T00:44:39;7.55;76.70
65203;HTU21D;51788;45.124;38.966;2023-03-16T00:47:09;7.56;76.98
65203;HTU21D;51788;45.124;38.966;2023-03-16T00:49:39;7.52;76.93
65203;HTU21D;51788;45.124;38.966;2023-03-16T00:52:10;7.50;77.11
65203;HTU21D;51788;45.124;38.966;2023-03-16T00:54:43;7.52;77.01
65203;HTU21D;51788;45.124;38.966;2023-03-16T00:57:11;7.49;77.10
65203;HTU21D;51788;45.124;38.966;2023-03-16T00:59:37;7.47;77.27
65203;HTU21D;51788;45.124;38.966;2023-03-16T01:02:06;7.47;77.33
65203;HTU21D;51788;45.124;38.966;2023-03-16T01:04:32;7.45;77.60
65203;HTU21D;51788;45.124;38.966;2023-03-16T01:07:05;7.45;77.49
65203;HTU21D;51788;45.124;38.966;2023-03-16T01:09:32;7.45;77.47
65203;HTU21D;51788;45.124;38.966;2023-03-16T01:12:06;7.43;77.43
65203;HTU21D;51788;45.124;38.966;2023-03-16T01:14:34;7.42;77.65
65203;HTU21D;51788;45.124;38.966;2023-03-16T01:17:01;7.42;77.84
65203;HTU21D;51788;45.124;38.966;2023-03-16T01:19:27;7.40;77.73
65203;HTU21D;51788;45.124;38.966;2023-03-16T01:21:53;7.41;77.58
65203;HTU21D;51788;45.124;38.966;2023-03-16T01:24:19;7.42;77.48
65203;HTU21D;51788;45.124;38.966;2023-03-16T01:26:45;7.44;77.37
65203;HTU21D;51788;45.124;38.966;2023-03-16T01:29:11;7.47;77.32
65203;HTU21D;51788;45.124;38.966;2023-03-16T01:31:38;7.48;77.29
65203;HTU21D;51788;45.124;38.966;2023-03-16T01:34:05;7.46;77.28
65203;HTU21D;51788;45.124;38.966;2023-03-16T01:36:31;7.46;77.39
65203;HTU21D;51788;45.124;38.966;2023-03-16T01:39:00;7.46;77.72
65203;HTU21D;51788;45.124;38.966;2023-03-16T01:41:33;7.42;77.66
65203;HTU21D;51788;45.124;38.966;2023-03-16T01:43:59;7.43;77.84
65203;HTU21D;51788;45.124;38.966;2023-03-16T01:46:27;7.41;77.83
65203;HTU21D;51788;45.124;38.966;2023-03-16T01:49:04;7.41;77.76
65203;HTU21D;51788;45.124;38.966;2023-03-16T01:59:39;7.39;77.95
65203;HTU21D;51788;45.124;38.966;2023-03-16T02:02:08;7.35;77.95
65203;HTU21D;51788;45.124;38.966;2023-03-16T02:04:45;7.40;78.09
65203;HTU21D;51788;45.124;38.966;2023-03-16T02:07:17;7.37;78.01
65203;HTU21D;51788;45.124;38.966;2023-03-16T02:09:45;7.41;78.21
65203;HTU21D;51788;45.124;38.966;2023-03-16T02:12:15;7.40;78.12
65203;HTU21D;51788;45.124;38.966;2023-03-16T02:14:45;7.43;78.17
65203;HTU21D;51788;45.124;38.966;2023-03-16T02:17:13;7.44;78.01
65203;HTU21D;51788;45.124;38.966;2023-03-16T02:20:09;7.45;78.05
65203;HTU21D;51788;45.124;38.966;2023-03-16T02:22:40;7.45;78.00
65203;HTU21D;51788;45.124;38.966;2023-03-16T02:25:08;7.39;78.02
65203;HTU21D;51788;45.124;38.966;2023-03-16T02:30:19;7.30;78.11
65203;HTU21D;51788;45.124;38.966;2023-03-16T02:33:00;7.19;78.30
65203;HTU21D;51788;45.124;38.966;2023-03-16T02:35:27;7.10;78.56
65203;HTU21D;51788;45.124;38.966;2023-03-16T02:37:53;7.11;78.68
65203;HTU21D;51788;45.124;38.966;2023-03-16T02:40:22;7.10;78.69
65203;HTU21D;51788;45.124;38.966;2023-03-16T02:42:58;7.14;78.63
65203;HTU21D;51788;45.124;38.966;2023-03-16T02:45:28;7.13;78.63
65203;HTU21D;51788;45.124;38.966;2023-03-16T02:48:01;7.12;78.57
65203;HTU21D;51788;45.124;38.966;2023-03-16T02:50:30;7.11;78.63
65203;HTU21D;51788;45.124;38.966;2023-03-16T02:52:56;7.09;78.72
65203;HTU21D;51788;45.124;38.966;2023-03-16T02:55:22;7.05;78.81
65203;HTU21D;51788;45.124;38.966;2023-03-16T02:57:48;7.04;78.88
65203;HTU21D;51788;45.124;38.966;2023-03-16T03:00:15;7.02;79.13
65203;HTU21D;51788;45.124;38.966;2023-03-16T03:02:45;7.01;79.33
65203;HTU21D;51788;45.124;38.966;2023-03-16T03:05:11;6.97;79.21
65203;HTU21D;51788;45.124;38.966;2023-03-16T03:07:38;6.95;79.28
65203;HTU21D;51788;45.124;38.966;2023-03-16T03:10:07;6.95;79.39
65203;HTU21D;51788;45.124;38.966;2023-03-16T03:12:33;6.93;79.33
65203;HTU21D;51788;45.124;38.966;2023-03-16T03:14:59;6.91;79.36
65203;HTU21D;51788;45.124;38.966;2023-03-16T03:17:29;6.90;79.46
65203;HTU21D;51788;45.124;38.966;2023-03-16T03:19:57;6.90;79.47
65203;HTU21D;51788;45.124;38.966;2023-03-16T03:22:23;6.91;79.43
65203;HTU21D;51788;45.124;38.966;2023-03-16T03:24:51;6.99;79.49
65203;HTU21D;51788;45.124;38.966;2023-03-16T03:27:19;7.03;79.27
65203;HTU21D;51788;45.124;38.966;2023-03-16T03:29:49;7.03;79.20
65203;HTU21D;51788;45.124;38.966;2023-03-16T03:32:15;7.05;79.20
65203;HTU21D;51788;45.124;38.966;2023-03-16T03:34:41;7.08;79.32
65203;HTU21D;51788;45.124;38.966;2023-03-16T03:37:07;7.12;79.17
65203;HTU21D;51788;45.124;38.966;2023-03-16T03:39:35;7.13;79.11
65203;HTU21D;51788;45.124;38.966;2023-03-16T03:42:00;7.11;79.10
65203;HTU21D;51788;45.124;38.966;2023-03-16T03:44:27;7.15;79.37
65203;HTU21D;51788;45.124;38.966;2023-03-16T03:46:54;7.19;79.21
65203;HTU21D;51788;45.124;38.966;2023-03-16T03:49:23;7.17;79.27
65203;HTU21D;51788;45.124;38.966;2023-03-16T03:51:49;7.18;79.30
65203;HTU21D;51788;45.124;38.966;2023-03-16T03:54:21;7.18;79.31
65203;HTU21D;51788;45.124;38.966;2023-03-16T03:56:56;7.16;79.44
65203;HTU21D;51788;45.124;38.966;2023-03-16T03:59:23;7.16;79.49
65203;HTU21D;51788;45.124;38.966;2023-03-16T04:02:04;7.17;79.47
65203;HTU21D;51788;45.124;38.966;2023-03-16T04:04:51;7.18;79.62
65203;HTU21D;51788;45.124;38.966;2023-03-16T04:07:17;7.18;79.63
65203;HTU21D;51788;45.124;38.966;2023-03-16T04:09:44;7.19;79.79
65203;HTU21D;51788;45.124;38.966;2023-03-16T04:12:21;7.20;79.87
65203;HTU21D;51788;45.124;38.966;2023-03-16T04:14:47;7.24;80.11
65203;HTU21D;51788;45.124;38.966;2023-03-16T04:17:14;7.25;80.27
65203;HTU21D;51788;45.124;38.966;2023-03-16T04:19:42;7.26;80.27
65203;HTU21D;51788;45.124;38.966;2023-03-16T04:22:12;7.28;80.38
65203;HTU21D;51788;45.124;38.966;2023-03-16T04:24:38;7.31;80.34
65203;HTU21D;51788;45.124;38.966;2023-03-16T04:27:04;7.34;80.36
65203;HTU21D;51788;45.124;38.966;2023-03-16T04:29:30;7.37;80.23
65203;HTU21D;51788;45.124;38.966;2023-03-16T04:31:57;7.43;80.12
65203;HTU21D;51788;45.124;38.966;2023-03-16T04:34:25;7.47;80.27
65203;HTU21D;51788;45.124;38.966;2023-03-16T04:36:55;7.49;80.30
65203;HTU21D;51788;45.124;38.966;2023-03-16T04:39:21;7.53;80.42
65203;HTU21D;51788;45.124;38.966;2023-03-16T04:41:48;7.55;80.57
65203;HTU21D;51788;45.124;38.966;2023-03-16T04:44:19;7.55;80.54
65203;HTU21D;51788;45.124;38.966;2023-03-16T04:46:45;7.61;80.39
65203;HTU21D;51788;45.124;38.966;2023-03-16T04:49:12;7.71;80.19
65203;HTU21D;51788;45.124;38.966;2023-03-16T04:51:41;7.79;80.13
65203;HTU21D;51788;45.124;38.966;2023-03-16T04:54:11;7.90;80.00
65203;HTU21D;51788;45.124;38.966;2023-03-16T04:56:40;7.99;79.75
65203;HTU21D;51788;45.124;38.966;2023-03-16T04:59:12;8.07;79.61
65203;HTU21D;51788;45.124;38.966;2023-03-16T05:01:50;8.08;79.49
65203;HTU21D;51788;45.124;38.966;2023-03-16T05:04:16;8.16;79.42
65203;HTU21D;51788;45.124;38.966;2023-03-16T05:06:42;8.23;79.32
65203;HTU21D;51788;45.124;38.966;2023-03-16T05:09:10;8.33;79.22
65203;HTU21D;51788;45.124;38.966;2023-03-16T05:11:38;8.48;79.09
65203;HTU21D;51788;45.124;38.966;2023-03-16T05:14:08;8.61;78.91
65203;HTU21D;51788;45.124;38.966;2023-03-16T05:16:45;8.70;78.69
65203;HTU21D;51788;45.124;38.966;2023-03-16T05:19:11;8.78;78.61
65203;HTU21D;51788;45.124;38.966;2023-03-16T05:21:37;8.89;78.53
65203;HTU21D;51788;45.124;38.966;2023-03-16T05:24:07;8.96;78.38
65203;HTU21D;51788;45.124;38.966;2023-03-16T05:26:34;9.08;78.24
65203;HTU21D;51788;45.124;38.966;2023-03-16T05:29:01;9.15;78.08
65203;HTU21D;51788;45.124;38.966;2023-03-16T05:31:29;9.21;77.91
65203;HTU21D;51788;45.124;38.966;2023-03-16T05:33:58;9.26;77.85
65203;HTU21D;51788;45.124;38.966;2023-03-16T05:36:24;9.36;77.72
65203;HTU21D;51788;45.124;38.966;2023-03-16T05:38:54;9.49;77.57
65203;HTU21D;51788;45.124;38.966;2023-03-16T05:41:30;9.60;77.38
65203;HTU21D;51788;45.124;38.966;2023-03-16T05:44:16;9.70;77.17
65203;HTU21D;51788;45.124;38.966;2023-03-16T05:47:05;9.80;76.98
65203;HTU21D;51788;45.124;38.966;2023-03-16T05:49:35;9.78;76.95
65203;HTU21D;51788;45.124;38.966;2023-03-16T05:52:06;9.84;76.92
65203;HTU21D;51788;45.124;38.966;2023-03-16T05:54:34;9.97;76.76
65203;HTU21D;51788;45.124;38.966;2023-03-16T05:57:00;10.06;76.57
65203;HTU21D;51788;45.124;38.966;2023-03-16T05:59:26;10.13;76.41
65203;HTU21D;51788;45.124;38.966;2023-03-16T06:01:55;10.24;76.26
65203;HTU21D;51788;45.124;38.966;2023-03-16T06:04:21;10.27;75.95
65203;HTU21D;51788;45.124;38.966;2023-03-16T06:06:47;10.26;76.01
65203;HTU21D;51788;45.124;38.966;2023-03-16T06:09:19;10.37;75.79
65203;HTU21D;51788;45.124;38.966;2023-03-16T06:11:45;10.42;75.55
65203;HTU21D;51788;45.124;38.966;2023-03-16T06:14:13;10.51;75.21
65203;HTU21D;51788;45.124;38.966;2023-03-16T06:16:40;10.56;75.06
65203;HTU21D;51788;45.124;38.966;2023-03-16T06:19:07;10.67;75.02
65203;HTU21D;51788;45.124;38.966;2023-03-16T06:21:34;10.82;74.74
65203;HTU21D;51788;45.124;38.966;2023-03-16T06:24:06;10.92;74.44
65203;HTU21D;51788;45.124;38.966;2023-03-16T06:26:37;10.95;74.38
65203;HTU21D;51788;45.124;38.966;2023-03-16T06:29:06;11.00;74.15
65203;HTU21D;51788;45.124;38.966;2023-03-16T06:31:34;10.99;74.23
65203;HTU21D;51788;45.124;38.966;2023-03-16T06:34:01;11.02;74.28
65203;HTU21D;51788;45.124;38.966;2023-03-16T06:36:30;11.14;74.06
65203;HTU21D;51788;45.124;38.966;2023-03-16T06:38:59;11.25;73.82
65203;HTU21D;51788;45.124;38.966;2023-03-16T06:41:44;11.32;73.73
65203;HTU21D;51788;45.124;38.966;2023-03-16T06:44:13;11.44;73.40
65203;HTU21D;51788;45.124;38.966;2023-03-16T06:46:49;11.51;73.24
65203;HTU21D;51788;45.124;38.966;2023-03-16T06:49:15;11.54;73.23
65203;HTU21D;51788;45.124;38.966;2023-03-16T06:51:41;11.58;73.04
65203;HTU21D;51788;45.124;38.966;2023-03-16T06:54:08;11.68;73.04
65203;HTU21D;51788;45.124;38.966;2023-03-16T06:56:37;11.84;72.79
65203;HTU21D;51788;45.124;38.966;2023-03-16T06:59:03;11.96;72.50
65203;HTU21D;51788;45.124;38.966;2023-03-16T07:01:29;12.03;72.36
65203;HTU21D;51788;45.124;38.966;2023-03-16T07:03:56;12.02;72.26
65203;HTU21D;51788;45.124;38.966;2023-03-16T07:06:26;12.03;72.31
65203;HTU21D;51788;45.124;38.966;2023-03-16T07:08:53;12.00;72.21
65203;HTU21D;51788;45.124;38.966;2023-03-16T07:11:20;11.99;72.46
65203;HTU21D;51788;45.124;38.966;2023-03-16T07:13:48;12.12;72.42
65203;HTU21D;51788;45.124;38.966;2023-03-16T07:16:16;12.20;72.08
65203;HTU21D;51788;45.124;38.966;2023-03-16T07:18:42;12.28;72.05
65203;HTU21D;51788;45.124;38.966;2023-03-16T07:21:11;12.42;71.93
65203;HTU21D;51788;45.124;38.966;2023-03-16T07:23:37;12.59;71.58
65203;HTU21D;51788;45.124;38.966;2023-03-16T07:26:05;12.72;71.43
65203;HTU21D;51788;45.124;38.966;2023-03-16T07:28:35;12.85;71.17
65203;HTU21D;51788;45.124;38.966;2023-03-16T07:31:02;12.96;70.93
65203;HTU21D;51788;45.124;38.966;2023-03-16T07:33:33;13.10;70.73
65203;HTU21D;51788;45.124;38.966;2023-03-16T07:36:03;13.26;70.51
65203;HTU21D;51788;45.124;38.966;2023-03-16T07:38:32;13.35;70.28
65203;HTU21D;51788;45.124;38.966;2023-03-16T07:41:01;13.31;70.39
65203;HTU21D;51788;45.124;38.966;2023-03-16T07:43:27;13.41;70.18
65203;HTU21D;51788;45.124;38.966;2023-03-16T07:45:54;13.53;70.09
65203;HTU21D;51788;45.124;38.966;2023-03-16T07:48:21;13.64;69.64
65203;HTU21D;51788;45.124;38.966;2023-03-16T07:50:54;13.70;69.63
65203;HTU21D;51788;45.124;38.966;2023-03-16T07:53:21;13.77;69.59
65203;HTU21D;51788;45.124;38.966;2023-03-16T07:55:52;13.79;69.58
65203;HTU21D;51788;45.124;38.966;2023-03-16T07:58:18;13.83;69.53
65203;HTU21D;51788;45.124;38.966;2023-03-16T08:00:46;13.89;69.52
65203;HTU21D;51788;45.124;38.966;2023-03-16T08:03:12;13.92;69.53
65203;HTU21D;51788;45.124;38.966;2023-03-16T08:05:38;13.95;69.56
65203;HTU21D;51788;45.124;38.966;2023-03-16T08:08:10;14.01;69.46
65203;HTU21D;51788;45.124;38.966;2023-03-16T08:10:37;14.05;69.49
65203;HTU21D;51788;45.124;38.966;2023-03-16T08:13:11;14.14;69.26
65203;HTU21D;51788;45.124;38.966;2023-03-16T08:15:40;14.19;69.16
65203;HTU21D;51788;45.124;38.966;2023-03-16T08:18:16;14.24;69.15
65203;HTU21D;51788;45.124;38.966;2023-03-16T08:20:43;14.37;68.94
65203;HTU21D;51788;45.124;38.966;2023-03-16T08:23:09;14.51;68.63
65203;HTU21D;51788;45.124;38.966;2023-03-16T08:25:40;14.63;68.33
65203;HTU21D;51788;45.124;38.966;2023-03-16T08:28:11;14.74;68.20
65203;HTU21D;51788;45.124;38.966;2023-03-16T08:30:44;14.72;68.14
65203;HTU21D;51788;45.124;38.966;2023-03-16T08:33:28;14.70;68.23
65203;HTU21D;51788;45.124;38.966;2023-03-16T08:35:54;14.58;68.49
65203;HTU21D;51788;45.124;38.966;2023-03-16T08:38:20;14.54;68.68
65203;HTU21D;51788;45.124;38.966;2023-03-16T08:40:49;14.53;68.60
65203;HTU21D;51788;45.124;38.966;2023-03-16T08:43:19;14.54;68.69
65203;HTU21D;51788;45.124;38.966;2023-03-16T08:45:45;14.58;68.67
65203;HTU21D;51788;45.124;38.966;2023-03-16T08:48:13;14.59;68.58
65203;HTU21D;51788;45.124;38.966;2023-03-16T08:50:43;14.67;68.31
65203;HTU21D;51788;45.124;38.966;2023-03-16T08:53:10;14.63;68.33
65203;HTU21D;51788;45.124;38.966;2023-03-16T08:55:37;14.67;68.43
65203;HTU21D;51788;45.124;38.966;2023-03-16T08:58:03;14.79;68.33
65203;HTU21D;51788;45.124;38.966;2023-03-16T09:00:29;14.84;68.17
65203;HTU21D;51788;45.124;38.966;2023-03-16T09:02:54;14.85;68.18
65203;HTU21D;51788;45.124;38.966;2023-03-16T09:05:21;14.92;68.13
65203;HTU21D;51788;45.124;38.966;2023-03-16T09:07:48;14.93;67.95
65203;HTU21D;51788;45.124;38.966;2023-03-16T09:10:14;14.96;67.94
65203;HTU21D;51788;45.124;38.966;2023-03-16T09:12:42;14.99;67.97
65203;HTU21D;51788;45.124;38.966;2023-03-16T09:15:10;15.11;67.74
65203;HTU21D;51788;45.124;38.966;2023-03-16T09:17:37;15.21;67.73
65203;HTU21D;51788;45.124;38.966;2023-03-16T09:20:05;15.37;67.36
65203;HTU21D;51788;45.124;38.966;2023-03-16T09:22:34;15.39;67.33
65203;HTU21D;51788;45.124;38.966;2023-03-16T09:25:01;15.37;67.46
65203;HTU21D;51788;45.124;38.966;2023-03-16T09:27:27;15.40;67.49
65203;HTU21D;51788;45.124;38.966;2023-03-16T09:29:53;15.41;67.52
65203;HTU21D;51788;45.124;38.966;2023-03-16T09:32:21;15.51;67.35
65203;HTU21D;51788;45.124;38.966;2023-03-16T09:34:47;15.59;67.31
65203;HTU21D;51788;45.124;38.966;2023-03-16T09:37:13;15.72;67.04
65203;HTU21D;51788;45.124;38.966;2023-03-16T09:39:40;15.80;66.71
65203;HTU21D;51788;45.124;38.966;2023-03-16T09:47:22;15.82;66.85
65203;HTU21D;51788;45.124;38.966;2023-03-16T09:49:50;15.86;66.75
65203;HTU21D;51788;45.124;38.966;2023-03-16T09:52:42;15.92;66.56
65203;HTU21D;51788;45.124;38.966;2023-03-16T09:57:57;16.04;66.33
65203;HTU21D;51788;45.124;38.966;2023-03-16T10:00:35;16.11;66.26
65203;HTU21D;51788;45.124;38.966;2023-03-16T10:03:31;16.12;66.17
65203;HTU21D;51788;45.124;38.966;2023-03-16T10:06:03;16.18;66.20
65203;HTU21D;51788;45.124;38.966;2023-03-16T10:08:36;16.32;65.89
65203;HTU21D;51788;45.124;38.966;2023-03-16T10:11:23;16.47;65.28
65203;HTU21D;51788;45.124;38.966;2023-03-16T10:16:57;16.69;64.85
65203;HTU21D;51788;45.124;38.966;2023-03-16T10:21:56;17.84;62.18
65203;HTU21D;51788;45.124;38.966;2023-03-16T10:26:55;17.68;62.34
65203;HTU21D;51788;45.124;38.966;2023-03-16T10:29:26;17.53;62.92
65203;HTU21D;51788;45.124;38.966;2023-03-16T10:31:58;17.37;62.95
65203;HTU21D;51788;45.124;38.966;2023-03-16T10:34:26;17.18;63.45
65203;HTU21D;51788;45.124;38.966;2023-03-16T10:36:53;16.99;63.60
65203;HTU21D;51788;45.124;38.966;2023-03-16T10:39:19;16.84;63.79
65203;HTU21D;51788;45.124;38.966;2023-03-16T10:41:54;16.76;63.95
65203;HTU21D;51788;45.124;38.966;2023-03-16T10:44:25;16.86;63.85
65203;HTU21D;51788;45.124;38.966;2023-03-16T10:47:06;17.00;63.58
65203;HTU21D;51788;45.124;38.966;2023-03-16T10:49:40;17.04;63.49
65203;HTU21D;51788;45.124;38.966;2023-03-16T10:55:01;17.06;63.24
65203;HTU21D;51788;45.124;38.966;2023-03-16T10:57:34;17.13;62.66
65203;HTU21D;51788;45.124;38.966;2023-03-16T11:00:11;17.16;62.47
65203;HTU21D;51788;45.124;38.966;2023-03-16T11:02:47;17.10;62.33
65203;HTU21D;51788;45.124;38.966;2023-03-16T11:10:40;16.76;62.85
65203;HTU21D;51788;45.124;38.966;2023-03-16T11:13:20;16.76;62.92
65203;HTU21D;51788;45.124;38.966;2023-03-16T11:18:36;16.72;62.57
65203;HTU21D;51788;45.124;38.966;2023-03-16T11:23:54;16.57;62.85
65203;HTU21D;51788;45.124;38.966;2023-03-16T11:26:35;16.51;62.75
65203;HTU21D;51788;45.124;38.966;2023-03-16T11:32:02;16.51;62.88
65203;HTU21D;51788;45.124;38.966;2023-03-16T11:34:30;16.51;62.86
65203;HTU21D;51788;45.124;38.966;2023-03-16T11:45:37;16.30;63.11
65203;HTU21D;51788;45.124;38.966;2023-03-16T11:59:02;16.17;63.18
65203;HTU21D;51788;45.124;38.966;2023-03-16T12:09:52;15.97;63.74
65203;HTU21D;51788;45.124;38.966;2023-03-16T12:12:28;16.01;63.63
65203;HTU21D;51788;45.124;38.966;2023-03-16T12:15:16;16.01;63.66
65203;HTU21D;51788;45.124;38.966;2023-03-16T12:17:47;16.03;63.63
65203;HTU21D;51788;45.124;38.966;2023-03-16T12:20:25;15.99;63.75
65203;HTU21D;51788;45.124;38.966;2023-03-16T12:23:42;15.97;63.89
65203;HTU21D;51788;45.124;38.966;2023-03-16T12:25:50;15.95;64.03
65203;HTU21D;51788;45.124;38.966;2023-03-16T12:28:23;16.00;64.05
65203;HTU21D;51788;45.124;38.966;2023-03-16T12:39:04;16.17;63.73
65203;HTU21D;51788;45.124;38.966;2023-03-16T12:49:40;16.06;64.07
65203;HTU21D;51788;45.124;38.966;2023-03-16T12:52:09;16.13;64.05
65203;HTU21D;51788;45.124;38.966;2023-03-16T12:54:35;16.18;63.99
65203;HTU21D;51788;45.124;38.966;2023-03-16T12:57:07;16.21;63.95
65203;HTU21D;51788;45.124;38.966;2023-03-16T12:59:42;16.26;63.94
65203;HTU21D;51788;45.124;38.966;2023-03-16T13:04:44;16.28;63.92
65203;HTU21D;51788;45.124;38.966;2023-03-16T13:07:17;16.28;64.00
65203;HTU21D;51788;45.124;38.966;2023-03-16T13:09:53;16.31;64.02
65203;HTU21D;51788;45.124;38.966;2023-03-16T13:12:24;16.31;64.05
65203;HTU21D;51788;45.124;38.966;2023-03-16T13:14:51;16.32;64.12
65203;HTU21D;51788;45.124;38.966;2023-03-16T13:20:06;16.33;64.23
65203;HTU21D;51788;45.124;38.966;2023-03-16T13:22:50;16.30;64.24
65203;HTU21D;51788;45.124;38.966;2023-03-16T13:27:55;16.07;64.84
65203;HTU21D;51788;45.124;38.966;2023-03-16T13:30:24;15.99;65.08
65203;HTU21D;51788;45.124;38.966;2023-03-16T13:32:59;15.92;65.35
65203;HTU21D;51788;45.124;38.966;2023-03-16T13:35:28;15.88;65.47
65203;HTU21D;51788;45.124;38.966;2023-03-16T13:38:04;15.89;65.55
65203;HTU21D;51788;45.124;38.966;2023-03-16T13:40:30;15.92;65.54
65203;HTU21D;51788;45.124;38.966;2023-03-16T13:42:58;15.97;65.48
65203;HTU21D;51788;45.124;38.966;2023-03-16T13:45:31;16.00;65.45
65203;HTU21D;51788;45.124;38.966;2023-03-16T13:47:59;16.01;65.44
65203;HTU21D;51788;45.124;38.966;2023-03-16T13:50:30;16.03;65.41
65203;HTU21D;51788;45.124;38.966;2023-03-16T13:52:59;16.07;65.36
65203;HTU21D;51788;45.124;38.966;2023-03-16T13:55:29;16.08;65.30
65203;HTU21D;51788;45.124;38.966;2023-03-16T13:57:56;16.11;65.19
65203;HTU21D;51788;45.124;38.966;2023-03-16T14:00:25;16.08;65.20
65203;HTU21D;51788;45.124;38.966;2023-03-16T14:02:56;16.10;65.21
65203;HTU21D;51788;45.124;38.966;2023-03-16T14:05:33;16.13;65.20
65203;HTU21D;51788;45.124;38.966;2023-03-16T14:08:00;16.17;65.11
65203;HTU21D;51788;45.124;38.966;2023-03-16T14:10:32;16.18;65.09
65203;HTU21D;51788;45.124;38.966;2023-03-16T14:13:07;16.19;65.08
65203;HTU21D;51788;45.124;38.966;2023-03-16T14:15:36;16.19;65.07
65203;HTU21D;51788;45.124;38.966;2023-03-16T14:18:15;16.20;65.05
65203;HTU21D;51788;45.124;38.966;2023-03-16T14:20:46;16.19;65.09
65203;HTU21D;51788;45.124;38.966;2023-03-16T14:23:23;16.19;65.15
65203;HTU21D;51788;45.124;38.966;2023-03-16T14:25:51;16.19;65.14
65203;HTU21D;51788;45.124;38.966;2023-03-16T14:28:21;16.18;65.15
65203;HTU21D;51788;45.124;38.966;2023-03-16T14:30:53;16.17;65.18
65203;HTU21D;51788;45.124;38.966;2023-03-16T14:33:27;16.17;65.20
65203;HTU21D;51788;45.124;38.966;2023-03-16T14:35:56;16.14;65.24
65203;HTU21D;51788;45.124;38.966;2023-03-16T14:38:32;16.12;65.28
65203;HTU21D;51788;45.124;38.966;2023-03-16T14:41:03;16.10;65.34
65203;HTU21D;51788;45.124;38.966;2023-03-16T14:43:35;16.06;65.39
65203;HTU21D;51788;45.124;38.966;2023-03-16T14:46:06;16.03;65.46
65203;HTU21D;51788;45.124;38.966;2023-03-16T14:48:34;16.01;65.50
65203;HTU21D;51788;45.124;38.966;2023-03-16T14:51:01;16.00;65.55
65203;HTU21D;51788;45.124;38.966;2023-03-16T14:53:28;15.98;65.59
65203;HTU21D;51788;45.124;38.966;2023-03-16T14:55:55;15.96;65.64
65203;HTU21D;51788;45.124;38.966;2023-03-16T14:58:21;15.93;65.69
65203;HTU21D;51788;45.124;38.966;2023-03-16T15:00:48;15.92;65.72
65203;HTU21D;51788;45.124;38.966;2023-03-16T15:03:19;15.91;65.75
65203;HTU21D;51788;45.124;38.966;2023-03-16T15:05:48;15.90;65.78
65203;HTU21D;51788;45.124;38.966;2023-03-16T15:08:21;15.88;65.83
65203;HTU21D;51788;45.124;38.966;2023-03-16T15:10:48;15.86;65.93
65203;HTU21D;51788;45.124;38.966;2023-03-16T15:13:20;15.82;66.04
65203;HTU21D;51788;45.124;38.966;2023-03-16T15:16:03;15.77;66.14
65203;HTU21D;51788;45.124;38.966;2023-03-16T15:18:33;15.73;66.23
65203;HTU21D;51788;45.124;38.966;2023-03-16T15:21:00;15.70;66.33
65203;HTU21D;51788;45.124;38.966;2023-03-16T15:23:28;15.66;66.40
65203;HTU21D;51788;45.124;38.966;2023-03-16T15:25:54;15.65;66.47
65203;HTU21D;51788;45.124;38.966;2023-03-16T15:28:26;15.61;66.56
65203;HTU21D;51788;45.124;38.966;2023-03-16T15:30:55;15.57;66.65
65203;HTU21D;51788;45.124;38.966;2023-03-16T15:33:22;15.55;66.72
65203;HTU21D;51788;45.124;38.966;2023-03-16T15:35:49;15.53;66.78
65203;HTU21D;51788;45.124;38.966;2023-03-16T15:38:31;15.54;66.80
65203;HTU21D;51788;45.124;38.966;2023-03-16T15:40:58;15.51;66.81
65203;HTU21D;51788;45.124;38.966;2023-03-16T15:43:26;15.49;66.88
65203;HTU21D;51788;45.124;38.966;2023-03-16T15:45:54;15.45;66.97
65203;HTU21D;51788;45.124;38.966;2023-03-16T15:48:20;15.42;67.07
65203;HTU21D;51788;45.124;38.966;2023-03-16T15:51:27;15.39;67.30
65203;HTU21D;51788;45.124;38.966;2023-03-16T15:54:05;15.36;67.32
65203;HTU21D;51788;45.124;38.966;2023-03-16T15:56:38;15.31;67.39
65203;HTU21D;51788;45.124;38.966;2023-03-16T15:59:10;15.28;67.48
65203;HTU21D;51788;45.124;38.966;2023-03-16T16:01:43;15.25;67.61
65203;HTU21D;51788;45.124;38.966;2023-03-16T16:04:14;15.19;67.70
65203;HTU21D;51788;45.124;38.966;2023-03-16T16:06:41;15.16;67.70
65203;HTU21D;51788;45.124;38.966;2023-03-16T16:09:08;15.08;67.78
65203;HTU21D;51788;45.124;38.966;2023-03-16T16:11:35;15.03;67.94
65203;HTU21D;51788;45.124;38.966;2023-03-16T16:14:01;14.98;68.06
65203;HTU21D;51788;45.124;38.966;2023-03-16T16:16:29;14.99;68.14
65203;HTU21D;51788;45.124;38.966;2023-03-16T16:18:56;14.96;68.21
65203;HTU21D;51788;45.124;38.966;2023-03-16T16:21:25;14.94;68.29
65203;HTU21D;51788;45.124;38.966;2023-03-16T16:23:57;14.91;68.36
65203;HTU21D;51788;45.124;38.966;2023-03-16T16:26:31;14.87;68.53
65203;HTU21D;51788;45.124;38.966;2023-03-16T16:28:59;14.83;68.55
65203;HTU21D;51788;45.124;38.966;2023-03-16T16:31:27;14.81;68.67
65203;HTU21D;51788;45.124;38.966;2023-03-16T16:33:55;14.79;68.70
65203;HTU21D;51788;45.124;38.966;2023-03-16T16:36:21;14.75;68.75
65203;HTU21D;51788;45.124;38.966;2023-03-16T16:38:48;14.71;68.86
65203;HTU21D;51788;45.124;38.966;2023-03-16T16:41:24;14.70;68.97
65203;HTU21D;51788;45.124;38.966;2023-03-16T16:43:52;14.72;68.90
65203;HTU21D;51788;45.124;38.966;2023-03-16T16:46:21;14.71;68.94
65203;HTU21D;51788;45.124;38.966;2023-03-16T16:49:04;14.70;69.10
65203;HTU21D;51788;45.124;38.966;2023-03-16T16:51:31;14.68;69.01
65203;HTU21D;51788;45.124;38.966;2023-03-16T16:53:59;14.67;69.11
65203;HTU21D;51788;45.124;38.966;2023-03-16T16:56:31;14.66;69.16
65203;HTU21D;51788;45.124;38.966;2023-03-16T16:59:12;14.64;69.33
65203;HTU21D;51788;45.124;38.966;2023-03-16T17:01:38;14.63;69.30